sensor_id;sensor_type;location;lat;lon;timestamp;P1;durP1;ratioP1;P2;durP2;ratioP2
12950;SDS011;6540;50.858;7.232;2022-08-20T00:00:57;3.30;;;3.00;;
12950;SDS011;6540;50.858;7.232;2022-08-20T00:03:26;4.53;;;3.63;;
12950;SDS011;6540;50.858;7.232;2022-08-20T00:05:58;3.77;;;3.47;;
12950;SDS011;6540;50.858;7.232;2022-08-20T00:08:24;4.17;;;3.77;;
12950;SDS011;6540;50.858;7.232;2022-08-20T00:10:51;4.87;;;3.53;;
12950;SDS011;6540;50.858;7.232;2022-08-20T00:13:21;4.23;;;3.80;;
12950;SDS011;6540;50.858;7.232;2022-08-20T00:15:52;5.10;;;4.07;;
12950;SDS011;6540;50.858;7.232;2022-08-20T00:18:18;4.20;;;3.80;;
12950;SDS011;6540;50.858;7.232;2022-08-20T00:20:45;4.53;;;3.93;;
12950;SDS011;6540;50.858;7.232;2022-08-20T00:23:13;4.83;;;3.80;;
12950;SDS011;6540;50.858;7.232;2022-08-20T00:25:39;4.93;;;3.80;;
12950;SDS011;6540;50.858;7.232;2022-08-20T00:28:05;4.13;;;3.83;;
12950;SDS011;6540;50.858;7.232;2022-08-20T00:30:31;4.37;;;3.87;;
12950;SDS011;6540;50.858;7.232;2022-08-20T00:33:01;4.30;;;3.90;;
12950;SDS011;6540;50.858;7.232;2022-08-20T00:35:32;4.40;;;4.00;;
12950;SDS011;6540;50.858;7.232;2022-08-20T00:38:00;4.80;;;3.57;;
12950;SDS011;6540;50.858;7.232;2022-08-20T00:40:28;6.37;;;3.63;;
12950;SDS011;6540;50.858;7.232;2022-08-20T00:42:57;3.53;;;3.20;;
12950;SDS011;6540;50.858;7.232;2022-08-20T00:45:26;3.83;;;3.50;;
12950;SDS011;6540;50.858;7.232;2022-08-20T00:47:53;4.17;;;3.67;;
12950;SDS011;6540;50.858;7.232;2022-08-20T00:50:20;3.87;;;3.47;;
12950;SDS011;6540;50.858;7.232;2022-08-20T00:52:50;4.93;;;4.30;;
12950;SDS011;6540;50.858;7.232;2022-08-20T00:55:17;4.33;;;3.83;;
12950;SDS011;6540;50.858;7.232;2022-08-20T00:57:47;4.80;;;4.23;;
12950;SDS011;6540;50.858;7.232;2022-08-20T01:00:23;3.70;;;3.33;;
12950;SDS011;6540;50.858;7.232;2022-08-20T01:02:57;4.47;;;3.93;;
12950;SDS011;6540;50.858;7.232;2022-08-20T01:05:24;5.23;;;4.03;;
12950;SDS011;6540;50.858;7.232;2022-08-20T01:07:50;4.37;;;3.93;;
12950;SDS011;6540;50.858;7.232;2022-08-20T01:10:19;6.77;;;4.53;;
12950;SDS011;6540;50.858;7.232;2022-08-20T01:12:48;4.47;;;4.07;;
12950;SDS011;6540;50.858;7.232;2022-08-20T01:15:16;4.90;;;4.40;;
12950;SDS011;6540;50.858;7.232;2022-08-20T01:17:44;5.10;;;4.30;;
12950;SDS011;6540;50.858;7.232;2022-08-20T01:23:05;6.37;;;4.80;;
12950;SDS011;6540;50.858;7.232;2022-08-20T01:31:03;4.50;;;4.10;;
12950;SDS011;6540;50.858;7.232;2022-08-20T01:33:30;4.63;;;4.03;;
12950;SDS011;6540;50.858;7.232;2022-08-20T01:35:57;4.43;;;4.03;;
12950;SDS011;6540;50.858;7.232;2022-08-20T01:38:22;5.57;;;5.07;;
12950;SDS011;6540;50.858;7.232;2022-08-20T01:43:34;6.10;;;4.73;;
12950;SDS011;6540;50.858;7.232;2022-08-20T01:46:00;5.30;;;4.80;;
12950;SDS011;6540;50.858;7.232;2022-08-20T01:48:25;6.10;;;4.60;;
12950;SDS011;6540;50.858;7.232;2022-08-20T01:51:04;4.37;;;3.97;;
12950;SDS011;6540;50.858;7.232;2022-08-20T01:53:37;5.00;;;4.57;;
12950;SDS011;6540;50.858;7.232;2022-08-20T01:56:06;4.63;;;4.23;;
12950;SDS011;6540;50.858;7.232;2022-08-20T01:58:34;4.77;;;4.17;;
12950;SDS011;6540;50.858;7.232;2022-08-20T02:01:02;5.23;;;4.73;;
12950;SDS011;6540;50.858;7.232;2022-08-20T02:03:27;5.00;;;4.50;;
12950;SDS011;6540;50.858;7.232;2022-08-20T02:05:54;4.80;;;4.30;;
12950;SDS011;6540;50.858;7.232;2022-08-20T02:08:20;4.90;;;4.47;;
12950;SDS011;6540;50.858;7.232;2022-08-20T02:10:46;6.10;;;5.40;;
12950;SDS011;6540;50.858;7.232;2022-08-20T02:13:12;7.93;;;5.93;;
12950;SDS011;6540;50.858;7.232;2022-08-20T02:15:38;8.57;;;5.33;;
12950;SDS011;6540;50.858;7.232;2022-08-20T02:18:04;5.33;;;4.80;;
12950;SDS011;6540;50.858;7.232;2022-08-20T02:20:32;6.03;;;5.27;;
12950;SDS011;6540;50.858;7.232;2022-08-20T02:22:57;7.30;;;5.53;;
12950;SDS011;6540;50.858;7.232;2022-08-20T02:25:25;5.43;;;4.40;;
12950;SDS011;6540;50.858;7.232;2022-08-20T02:27:53;5.77;;;5.10;;
12950;SDS011;6540;50.858;7.232;2022-08-20T02:30:21;6.60;;;5.33;;
12950;SDS011;6540;50.858;7.232;2022-08-20T02:32:52;7.03;;;5.13;;
12950;SDS011;6540;50.858;7.232;2022-08-20T02:35:18;5.53;;;5.03;;
12950;SDS011;6540;50.858;7.232;2022-08-20T02:37:44;5.90;;;5.20;;
12950;SDS011;6540;50.858;7.232;2022-08-20T02:40:12;5.70;;;5.20;;
12950;SDS011;6540;50.858;7.232;2022-08-20T02:42:41;5.93;;;5.33;;
12950;SDS011;6540;50.858;7.232;2022-08-20T02:45:11;5.53;;;4.97;;
12950;SDS011;6540;50.858;7.232;2022-08-20T02:47:39;6.40;;;5.80;;
12950;SDS011;6540;50.858;7.232;2022-08-20T02:50:05;6.40;;;5.73;;
12950;SDS011;6540;50.858;7.232;2022-08-20T02:52:31;7.47;;;5.33;;
12950;SDS011;6540;50.858;7.232;2022-08-20T02:54:57;6.77;;;5.30;;
12950;SDS011;6540;50.858;7.232;2022-08-20T02:57:22;8.00;;;5.20;;
12950;SDS011;6540;50.858;7.232;2022-08-20T02:59:48;7.80;;;5.53;;
12950;SDS011;6540;50.858;7.232;2022-08-20T03:02:16;6.17;;;5.57;;
12950;SDS011;6540;50.858;7.232;2022-08-20T03:04:42;5.93;;;5.37;;
12950;SDS011;6540;50.858;7.232;2022-08-20T03:07:07;6.60;;;5.53;;
12950;SDS011;6540;50.858;7.232;2022-08-20T03:09:34;6.13;;;5.40;;
12950;SDS011;6540;50.858;7.232;2022-08-20T03:12:00;6.87;;;5.40;;
12950;SDS011;6540;50.858;7.232;2022-08-20T03:14:26;6.63;;;5.87;;
12950;SDS011;6540;50.858;7.232;2022-08-20T03:16:52;6.73;;;5.53;;
12950;SDS011;6540;50.858;7.232;2022-08-20T03:19:18;6.53;;;5.23;;
12950;SDS011;6540;50.858;7.232;2022-08-20T03:21:43;6.13;;;5.53;;
12950;SDS011;6540;50.858;7.232;2022-08-20T03:24:09;5.80;;;4.77;;
12950;SDS011;6540;50.858;7.232;2022-08-20T03:26:34;6.95;;;5.25;;
12950;SDS011;6540;50.858;7.232;2022-08-20T03:29:00;5.83;;;4.90;;
12950;SDS011;6540;50.858;7.232;2022-08-20T03:31:25;5.77;;;5.23;;
12950;SDS011;6540;50.858;7.232;2022-08-20T03:33:51;5.43;;;4.93;;
12950;SDS011;6540;50.858;7.232;2022-08-20T03:36:16;7.00;;;5.23;;
12950;SDS011;6540;50.858;7.232;2022-08-20T03:38:43;7.97;;;5.33;;
12950;SDS011;6540;50.858;7.232;2022-08-20T03:41:08;6.30;;;5.40;;
12950;SDS011;6540;50.858;7.232;2022-08-20T03:43:33;6.03;;;5.43;;
12950;SDS011;6540;50.858;7.232;2022-08-20T03:45:59;6.70;;;5.83;;
12950;SDS011;6540;50.858;7.232;2022-08-20T03:48:25;6.27;;;5.67;;
12950;SDS011;6540;50.858;7.232;2022-08-20T03:50:50;7.07;;;5.70;;
12950;SDS011;6540;50.858;7.232;2022-08-20T03:53:17;6.60;;;5.13;;
12950;SDS011;6540;50.858;7.232;2022-08-20T03:55:44;8.97;;;5.50;;
12950;SDS011;6540;50.858;7.232;2022-08-20T03:58:11;6.17;;;5.33;;
12950;SDS011;6540;50.858;7.232;2022-08-20T04:00:42;8.47;;;5.93;;
12950;SDS011;6540;50.858;7.232;2022-08-20T04:03:12;8.67;;;5.37;;
12950;SDS011;6540;50.858;7.232;2022-08-20T04:05:38;5.80;;;5.20;;
12950;SDS011;6540;50.858;7.232;2022-08-20T04:08:09;9.07;;;6.23;;
12950;SDS011;6540;50.858;7.232;2022-08-20T04:10:36;7.93;;;5.47;;
12950;SDS011;6540;50.858;7.232;2022-08-20T04:13:03;5.47;;;4.97;;
12950;SDS011;6540;50.858;7.232;2022-08-20T04:15:31;6.03;;;4.93;;
12950;SDS011;6540;50.858;7.232;2022-08-20T04:17:57;5.33;;;4.83;;
12950;SDS011;6540;50.858;7.232;2022-08-20T04:20:23;6.90;;;4.73;;
12950;SDS011;6540;50.858;7.232;2022-08-20T04:22:53;7.30;;;5.43;;
12950;SDS011;6540;50.858;7.232;2022-08-20T04:25:20;5.47;;;5.00;;
12950;SDS011;6540;50.858;7.232;2022-08-20T04:27:46;5.80;;;5.20;;
12950;SDS011;6540;50.858;7.232;2022-08-20T04:30:14;5.73;;;5.13;;
12950;SDS011;6540;50.858;7.232;2022-08-20T04:32:41;5.57;;;4.80;;
12950;SDS011;6540;50.858;7.232;2022-08-20T04:35:09;7.17;;;5.17;;
12950;SDS011;6540;50.858;7.232;2022-08-20T04:37:39;9.53;;;5.60;;
12950;SDS011;6540;50.858;7.232;2022-08-20T04:40:07;8.60;;;5.63;;
12950;SDS011;6540;50.858;7.232;2022-08-20T04:42:53;5.57;;;5.03;;
12950;SDS011;6540;50.858;7.232;2022-08-20T04:45:19;5.37;;;4.87;;
12950;SDS011;6540;50.858;7.232;2022-08-20T04:47:46;5.27;;;4.30;;
12950;SDS011;6540;50.858;7.232;2022-08-20T04:50:12;11.23;;;4.77;;
12950;SDS011;6540;50.858;7.232;2022-08-20T04:52:37;5.80;;;5.20;;
12950;SDS011;6540;50.858;7.232;2022-08-20T04:55:04;6.07;;;4.63;;
12950;SDS011;6540;50.858;7.232;2022-08-20T04:57:31;5.97;;;4.53;;
12950;SDS011;6540;50.858;7.232;2022-08-20T04:59:57;6.00;;;4.47;;
12950;SDS011;6540;50.858;7.232;2022-08-20T05:02:22;5.80;;;4.60;;
12950;SDS011;6540;50.858;7.232;2022-08-20T05:04:47;6.30;;;4.13;;
12950;SDS011;6540;50.858;7.232;2022-08-20T05:07:14;5.93;;;4.53;;
12950;SDS011;6540;50.858;7.232;2022-08-20T05:09:40;4.90;;;4.40;;
12950;SDS011;6540;50.858;7.232;2022-08-20T05:12:06;9.30;;;5.53;;
12950;SDS011;6540;50.858;7.232;2022-08-20T05:14:32;4.93;;;4.53;;
12950;SDS011;6540;50.858;7.232;2022-08-20T05:17:00;5.80;;;5.23;;
12950;SDS011;6540;50.858;7.232;2022-08-20T05:19:29;5.10;;;4.60;;
12950;SDS011;6540;50.858;7.232;2022-08-20T05:21:55;5.03;;;4.33;;
12950;SDS011;6540;50.858;7.232;2022-08-20T05:24:20;6.57;;;5.10;;
12950;SDS011;6540;50.858;7.232;2022-08-20T05:26:45;5.10;;;4.60;;
12950;SDS011;6540;50.858;7.232;2022-08-20T05:29:11;7.43;;;5.20;;
12950;SDS011;6540;50.858;7.232;2022-08-20T05:31:37;5.27;;;4.83;;
12950;SDS011;6540;50.858;7.232;2022-08-20T05:34:05;5.87;;;4.77;;
12950;SDS011;6540;50.858;7.232;2022-08-20T05:36:34;5.20;;;4.70;;
12950;SDS011;6540;50.858;7.232;2022-08-20T05:39:00;4.87;;;4.10;;
12950;SDS011;6540;50.858;7.232;2022-08-20T05:41:25;3.73;;;3.33;;
12950;SDS011;6540;50.858;7.232;2022-08-20T05:43:53;3.80;;;3.30;;
12950;SDS011;6540;50.858;7.232;2022-08-20T05:46:19;4.00;;;3.60;;
12950;SDS011;6540;50.858;7.232;2022-08-20T05:48:44;3.77;;;3.47;;
12950;SDS011;6540;50.858;7.232;2022-08-20T05:51:10;3.90;;;3.57;;
12950;SDS011;6540;50.858;7.232;2022-08-20T05:53:35;3.93;;;3.60;;
12950;SDS011;6540;50.858;7.232;2022-08-20T05:56:01;4.27;;;3.83;;
12950;SDS011;6540;50.858;7.232;2022-08-20T05:58:27;5.20;;;4.47;;
12950;SDS011;6540;50.858;7.232;2022-08-20T06:00:54;5.93;;;4.27;;
12950;SDS011;6540;50.858;7.232;2022-08-20T06:03:19;4.20;;;3.80;;
12950;SDS011;6540;50.858;7.232;2022-08-20T06:06:05;4.77;;;3.60;;
12950;SDS011;6540;50.858;7.232;2022-08-20T06:08:31;4.40;;;4.00;;
12950;SDS011;6540;50.858;7.232;2022-08-20T06:10:56;5.27;;;3.73;;
12950;SDS011;6540;50.858;7.232;2022-08-20T06:13:22;5.47;;;4.60;;
12950;SDS011;6540;50.858;7.232;2022-08-20T06:15:47;8.70;;;4.33;;
12950;SDS011;6540;50.858;7.232;2022-08-20T06:18:13;4.50;;;4.10;;
12950;SDS011;6540;50.858;7.232;2022-08-20T06:20:39;5.37;;;4.47;;
12950;SDS011;6540;50.858;7.232;2022-08-20T06:23:05;3.77;;;3.47;;
12950;SDS011;6540;50.858;7.232;2022-08-20T06:25:31;3.80;;;3.50;;
12950;SDS011;6540;50.858;7.232;2022-08-20T06:27:58;4.13;;;3.73;;
12950;SDS011;6540;50.858;7.232;2022-08-20T06:30:24;4.80;;;4.40;;
12950;SDS011;6540;50.858;7.232;2022-08-20T06:32:50;4.23;;;3.70;;
12950;SDS011;6540;50.858;7.232;2022-08-20T06:35:15;4.63;;;4.23;;
12950;SDS011;6540;50.858;7.232;2022-08-20T06:37:41;4.73;;;4.33;;
12950;SDS011;6540;50.858;7.232;2022-08-20T06:42:43;12.77;;;11.37;;
12950;SDS011;6540;50.858;7.232;2022-08-20T06:45:13;13.57;;;12.17;;
12950;SDS011;6540;50.858;7.232;2022-08-20T06:47:40;15.37;;;12.23;;
12950;SDS011;6540;50.858;7.232;2022-08-20T06:50:12;17.47;;;15.57;;
12950;SDS011;6540;50.858;7.232;2022-08-20T06:52:40;24.50;;;18.83;;
12950;SDS011;6540;50.858;7.232;2022-08-20T06:55:09;27.03;;;20.87;;
12950;SDS011;6540;50.858;7.232;2022-08-20T06:57:36;28.00;;;20.23;;
12950;SDS011;6540;50.858;7.232;2022-08-20T07:00:05;27.40;;;21.20;;
12950;SDS011;6540;50.858;7.232;2022-08-20T07:02:43;25.57;;;21.60;;
12950;SDS011;6540;50.858;7.232;2022-08-20T07:05:12;28.70;;;22.90;;
12950;SDS011;6540;50.858;7.232;2022-08-20T07:07:37;25.00;;;20.03;;
12950;SDS011;6540;50.858;7.232;2022-08-20T07:10:04;25.70;;;21.47;;
12950;SDS011;6540;50.858;7.232;2022-08-20T07:12:32;27.17;;;20.53;;
12950;SDS011;6540;50.858;7.232;2022-08-20T07:15:01;25.70;;;20.47;;
12950;SDS011;6540;50.858;7.232;2022-08-20T07:17:31;23.37;;;18.13;;
12950;SDS011;6540;50.858;7.232;2022-08-20T07:19:56;22.00;;;18.03;;
12950;SDS011;6540;50.858;7.232;2022-08-20T07:22:22;22.83;;;18.97;;
12950;SDS011;6540;50.858;7.232;2022-08-20T07:24:48;22.80;;;18.90;;
12950;SDS011;6540;50.858;7.232;2022-08-20T07:27:18;22.50;;;18.60;;
12950;SDS011;6540;50.858;7.232;2022-08-20T07:29:52;20.90;;;16.90;;
12950;SDS011;6540;50.858;7.232;2022-08-20T07:32:36;20.20;;;16.63;;
12950;SDS011;6540;50.858;7.232;2022-08-20T07:35:06;21.93;;;16.63;;
12950;SDS011;6540;50.858;7.232;2022-08-20T07:37:40;18.03;;;15.57;;
12950;SDS011;6540;50.858;7.232;2022-08-20T07:40:07;19.13;;;15.87;;
12950;SDS011;6540;50.858;7.232;2022-08-20T07:42:36;21.13;;;15.13;;
12950;SDS011;6540;50.858;7.232;2022-08-20T07:45:08;16.23;;;14.53;;
12950;SDS011;6540;50.858;7.232;2022-08-20T07:47:36;17.23;;;14.40;;
12950;SDS011;6540;50.858;7.232;2022-08-20T07:50:02;17.53;;;15.57;;
12950;SDS011;6540;50.858;7.232;2022-08-20T07:52:28;19.03;;;14.90;;
12950;SDS011;6540;50.858;7.232;2022-08-20T07:54:53;19.03;;;15.77;;
12950;SDS011;6540;50.858;7.232;2022-08-20T07:57:18;15.97;;;14.20;;
12950;SDS011;6540;50.858;7.232;2022-08-20T07:59:44;19.47;;;16.43;;
12950;SDS011;6540;50.858;7.232;2022-08-20T08:02:10;17.63;;;15.40;;
12950;SDS011;6540;50.858;7.232;2022-08-20T08:04:36;18.10;;;16.13;;
12950;SDS011;6540;50.858;7.232;2022-08-20T08:07:02;18.27;;;15.00;;
12950;SDS011;6540;50.858;7.232;2022-08-20T08:09:28;20.37;;;15.77;;
12950;SDS011;6540;50.858;7.232;2022-08-20T08:11:56;19.10;;;16.50;;
12950;SDS011;6540;50.858;7.232;2022-08-20T08:14:24;18.43;;;14.70;;
12950;SDS011;6540;50.858;7.232;2022-08-20T08:16:53;17.57;;;14.27;;
12950;SDS011;6540;50.858;7.232;2022-08-20T08:19:22;15.30;;;13.73;;
12950;SDS011;6540;50.858;7.232;2022-08-20T08:21:51;18.10;;;14.90;;
12950;SDS011;6540;50.858;7.232;2022-08-20T08:24:16;16.80;;;14.33;;
12950;SDS011;6540;50.858;7.232;2022-08-20T08:26:45;15.47;;;13.60;;
12950;SDS011;6540;50.858;7.232;2022-08-20T08:29:10;18.27;;;13.40;;
12950;SDS011;6540;50.858;7.232;2022-08-20T08:31:36;16.20;;;13.47;;
12950;SDS011;6540;50.858;7.232;2022-08-20T08:34:01;14.07;;;12.53;;
12950;SDS011;6540;50.858;7.232;2022-08-20T08:36:27;13.47;;;12.17;;
12950;SDS011;6540;50.858;7.232;2022-08-20T08:38:52;14.53;;;12.23;;
12950;SDS011;6540;50.858;7.232;2022-08-20T08:44:14;14.10;;;10.87;;
12950;SDS011;6540;50.858;7.232;2022-08-20T08:46:47;12.10;;;10.80;;
12950;SDS011;6540;50.858;7.232;2022-08-20T08:49:17;12.80;;;10.47;;
12950;SDS011;6540;50.858;7.232;2022-08-20T08:51:48;12.33;;;10.23;;
12950;SDS011;6540;50.858;7.232;2022-08-20T08:54:20;12.80;;;11.37;;
12950;SDS011;6540;50.858;7.232;2022-08-20T08:56:48;13.57;;;9.70;;
12950;SDS011;6540;50.858;7.232;2022-08-20T08:59:15;12.70;;;10.07;;
12950;SDS011;6540;50.858;7.232;2022-08-20T09:01:43;10.33;;;9.13;;
12950;SDS011;6540;50.858;7.232;2022-08-20T09:04:17;10.73;;;9.73;;
12950;SDS011;6540;50.858;7.232;2022-08-20T09:06:45;10.10;;;8.93;;
12950;SDS011;6540;50.858;7.232;2022-08-20T09:09:17;12.70;;;10.07;;
12950;SDS011;6540;50.858;7.232;2022-08-20T09:11:48;10.70;;;9.17;;
12950;SDS011;6540;50.858;7.232;2022-08-20T09:14:17;12.77;;;9.07;;
12950;SDS011;6540;50.858;7.232;2022-08-20T09:16:43;11.17;;;9.23;;
12950;SDS011;6540;50.858;7.232;2022-08-20T09:19:08;9.83;;;8.87;;
12950;SDS011;6540;50.858;7.232;2022-08-20T09:21:34;13.53;;;10.37;;
12950;SDS011;6540;50.858;7.232;2022-08-20T09:24:00;12.77;;;11.07;;
12950;SDS011;6540;50.858;7.232;2022-08-20T09:26:25;14.40;;;12.90;;
12950;SDS011;6540;50.858;7.232;2022-08-20T09:28:51;15.63;;;12.70;;
12950;SDS011;6540;50.858;7.232;2022-08-20T09:31:16;13.23;;;11.83;;
12950;SDS011;6540;50.858;7.232;2022-08-20T09:33:42;15.03;;;11.33;;
12950;SDS011;6540;50.858;7.232;2022-08-20T09:36:07;12.13;;;10.87;;
12950;SDS011;6540;50.858;7.232;2022-08-20T09:38:36;14.03;;;12.63;;
12950;SDS011;6540;50.858;7.232;2022-08-20T09:41:01;16.03;;;12.90;;
12950;SDS011;6540;50.858;7.232;2022-08-20T09:43:26;17.60;;;12.83;;
12950;SDS011;6540;50.858;7.232;2022-08-20T09:45:52;14.43;;;12.97;;
12950;SDS011;6540;50.858;7.232;2022-08-20T09:48:17;18.80;;;14.30;;
12950;SDS011;6540;50.858;7.232;2022-08-20T09:50:45;14.77;;;13.27;;
12950;SDS011;6540;50.858;7.232;2022-08-20T09:53:12;17.63;;;13.83;;
12950;SDS011;6540;50.858;7.232;2022-08-20T09:55:42;16.33;;;14.73;;
12950;SDS011;6540;50.858;7.232;2022-08-20T10:00:46;15.37;;;13.90;;
12950;SDS011;6540;50.858;7.232;2022-08-20T10:03:12;16.97;;;15.20;;
12950;SDS011;6540;50.858;7.232;2022-08-20T10:05:38;15.53;;;14.03;;
12950;SDS011;6540;50.858;7.232;2022-08-20T10:08:04;18.07;;;16.23;;
12950;SDS011;6540;50.858;7.232;2022-08-20T10:10:30;16.30;;;14.80;;
12950;SDS011;6540;50.858;7.232;2022-08-20T10:12:56;16.43;;;13.83;;
12950;SDS011;6540;50.858;7.232;2022-08-20T10:15:21;15.83;;;14.10;;
12950;SDS011;6540;50.858;7.232;2022-08-20T10:17:47;15.17;;;12.80;;
12950;SDS011;6540;50.858;7.232;2022-08-20T10:20:12;13.40;;;10.90;;
12950;SDS011;6540;50.858;7.232;2022-08-20T10:22:38;11.27;;;10.10;;
12950;SDS011;6540;50.858;7.232;2022-08-20T10:25:04;11.37;;;10.27;;
12950;SDS011;6540;50.858;7.232;2022-08-20T10:27:30;14.30;;;9.80;;
12950;SDS011;6540;50.858;7.232;2022-08-20T10:29:56;10.67;;;9.67;;
12950;SDS011;6540;50.858;7.232;2022-08-20T10:32:21;11.43;;;10.03;;
12950;SDS011;6540;50.858;7.232;2022-08-20T10:34:47;13.70;;;10.83;;
12950;SDS011;6540;50.858;7.232;2022-08-20T10:37:16;11.07;;;9.97;;
12950;SDS011;6540;50.858;7.232;2022-08-20T10:39:45;13.33;;;11.37;;
12950;SDS011;6540;50.858;7.232;2022-08-20T10:42:11;15.70;;;10.97;;
12950;SDS011;6540;50.858;7.232;2022-08-20T10:44:37;13.10;;;11.10;;
12950;SDS011;6540;50.858;7.232;2022-08-20T10:47:15;15.77;;;13.40;;
12950;SDS011;6540;50.858;7.232;2022-08-20T10:49:41;14.73;;;11.07;;
12950;SDS011;6540;50.858;7.232;2022-08-20T10:52:06;12.90;;;11.60;;
12950;SDS011;6540;50.858;7.232;2022-08-20T10:54:32;14.63;;;10.93;;
12950;SDS011;6540;50.858;7.232;2022-08-20T10:57:01;13.23;;;9.43;;
12950;SDS011;6540;50.858;7.232;2022-08-20T10:59:27;13.73;;;10.40;;
12950;SDS011;6540;50.858;7.232;2022-08-20T11:01:53;14.20;;;9.77;;
12950;SDS011;6540;50.858;7.232;2022-08-20T11:04:18;12.67;;;9.73;;
12950;SDS011;6540;50.858;7.232;2022-08-20T11:06:44;13.60;;;8.67;;
12950;SDS011;6540;50.858;7.232;2022-08-20T11:09:09;10.53;;;9.27;;
12950;SDS011;6540;50.858;7.232;2022-08-20T11:11:34;11.07;;;9.97;;
12950;SDS011;6540;50.858;7.232;2022-08-20T11:14:00;10.33;;;8.97;;
12950;SDS011;6540;50.858;7.232;2022-08-20T11:16:25;12.27;;;8.30;;
12950;SDS011;6540;50.858;7.232;2022-08-20T11:18:50;10.53;;;8.77;;
12950;SDS011;6540;50.858;7.232;2022-08-20T11:21:16;11.60;;;8.10;;
12950;SDS011;6540;50.858;7.232;2022-08-20T11:23:41;9.83;;;7.63;;
12950;SDS011;6540;50.858;7.232;2022-08-20T11:26:07;10.87;;;9.00;;
12950;SDS011;6540;50.858;7.232;2022-08-20T11:28:32;8.47;;;7.73;;
12950;SDS011;6540;50.858;7.232;2022-08-20T11:30:58;13.40;;;7.90;;
12950;SDS011;6540;50.858;7.232;2022-08-20T11:33:24;9.40;;;6.90;;
12950;SDS011;6540;50.858;7.232;2022-08-20T11:35:50;9.77;;;7.70;;
12950;SDS011;6540;50.858;7.232;2022-08-20T11:38:16;8.47;;;7.13;;
12950;SDS011;6540;50.858;7.232;2022-08-20T11:40:42;9.13;;;8.03;;
12950;SDS011;6540;50.858;7.232;2022-08-20T11:43:08;12.07;;;8.80;;
12950;SDS011;6540;50.858;7.232;2022-08-20T11:45:33;9.87;;;8.00;;
12950;SDS011;6540;50.858;7.232;2022-08-20T11:47:59;10.57;;;8.90;;
12950;SDS011;6540;50.858;7.232;2022-08-20T11:50:24;13.17;;;9.13;;
12950;SDS011;6540;50.858;7.232;2022-08-20T11:52:50;11.57;;;9.07;;
12950;SDS011;6540;50.858;7.232;2022-08-20T11:55:15;10.97;;;8.87;;
12950;SDS011;6540;50.858;7.232;2022-08-20T11:57:42;13.30;;;8.67;;
12950;SDS011;6540;50.858;7.232;2022-08-20T12:00:11;9.83;;;8.83;;
12950;SDS011;6540;50.858;7.232;2022-08-20T12:02:45;10.80;;;7.90;;
12950;SDS011;6540;50.858;7.232;2022-08-20T12:05:11;7.60;;;6.80;;
12950;SDS011;6540;50.858;7.232;2022-08-20T12:07:37;8.27;;;7.47;;
12950;SDS011;6540;50.858;7.232;2022-08-20T12:10:03;9.43;;;7.20;;
12950;SDS011;6540;50.858;7.232;2022-08-20T12:12:30;9.50;;;6.30;;
12950;SDS011;6540;50.858;7.232;2022-08-20T12:14:56;11.37;;;7.20;;
12950;SDS011;6540;50.858;7.232;2022-08-20T12:17:24;6.80;;;6.10;;
12950;SDS011;6540;50.858;7.232;2022-08-20T12:19:52;8.70;;;6.27;;
12950;SDS011;6540;50.858;7.232;2022-08-20T12:22:19;7.80;;;5.60;;
12950;SDS011;6540;50.858;7.232;2022-08-20T12:24:45;10.60;;;6.43;;
12950;SDS011;6540;50.858;7.232;2022-08-20T12:27:12;8.13;;;5.60;;
12950;SDS011;6540;50.858;7.232;2022-08-20T12:29:40;7.23;;;6.53;;
12950;SDS011;6540;50.858;7.232;2022-08-20T12:32:08;6.70;;;6.10;;
12950;SDS011;6540;50.858;7.232;2022-08-20T12:34:34;8.93;;;6.13;;
12950;SDS011;6540;50.858;7.232;2022-08-20T12:37:03;10.83;;;6.53;;
12950;SDS011;6540;50.858;7.232;2022-08-20T12:39:33;6.77;;;5.80;;
12950;SDS011;6540;50.858;7.232;2022-08-20T12:41:59;7.43;;;5.67;;
12950;SDS011;6540;50.858;7.232;2022-08-20T12:44:28;6.30;;;5.60;;
12950;SDS011;6540;50.858;7.232;2022-08-20T12:47:16;7.73;;;5.77;;
12950;SDS011;6540;50.858;7.232;2022-08-20T12:49:53;7.53;;;5.83;;
12950;SDS011;6540;50.858;7.232;2022-08-20T12:52:27;7.23;;;5.37;;
12950;SDS011;6540;50.858;7.232;2022-08-20T12:54:54;9.57;;;5.83;;
12950;SDS011;6540;50.858;7.232;2022-08-20T13:00:06;8.43;;;5.73;;
12950;SDS011;6540;50.858;7.232;2022-08-20T13:02:35;10.90;;;6.50;;
12950;SDS011;6540;50.858;7.232;2022-08-20T13:05:01;7.40;;;6.03;;
12950;SDS011;6540;50.858;7.232;2022-08-20T13:07:27;7.73;;;6.13;;
12950;SDS011;6540;50.858;7.232;2022-08-20T13:09:52;8.97;;;6.50;;
12950;SDS011;6540;50.858;7.232;2022-08-20T13:12:17;7.60;;;6.63;;
12950;SDS011;6540;50.858;7.232;2022-08-20T13:14:43;8.63;;;6.13;;
12950;SDS011;6540;50.858;7.232;2022-08-20T13:17:08;8.60;;;6.00;;
12950;SDS011;6540;50.858;7.232;2022-08-20T13:19:35;7.90;;;6.13;;
12950;SDS011;6540;50.858;7.232;2022-08-20T13:22:01;8.57;;;6.57;;
12950;SDS011;6540;50.858;7.232;2022-08-20T13:24:27;11.23;;;6.43;;
12950;SDS011;6540;50.858;7.232;2022-08-20T13:26:53;9.43;;;6.67;;
12950;SDS011;6540;50.858;7.232;2022-08-20T13:29:19;12.07;;;7.10;;
12950;SDS011;6540;50.858;7.232;2022-08-20T13:31:44;9.27;;;6.60;;
12950;SDS011;6540;50.858;7.232;2022-08-20T13:34:10;13.63;;;10.77;;
12950;SDS011;6540;50.858;7.232;2022-08-20T13:36:36;8.23;;;7.33;;
12950;SDS011;6540;50.858;7.232;2022-08-20T13:39:06;9.87;;;7.73;;
12950;SDS011;6540;50.858;7.232;2022-08-20T13:41:32;8.60;;;6.30;;
12950;SDS011;6540;50.858;7.232;2022-08-20T13:43:57;8.40;;;6.03;;
12950;SDS011;6540;50.858;7.232;2022-08-20T13:46:23;6.00;;;5.33;;
12950;SDS011;6540;50.858;7.232;2022-08-20T13:48:48;11.77;;;6.57;;
12950;SDS011;6540;50.858;7.232;2022-08-20T13:51:14;7.37;;;5.70;;
12950;SDS011;6540;50.858;7.232;2022-08-20T13:53:39;6.03;;;5.40;;
12950;SDS011;6540;50.858;7.232;2022-08-20T13:56:04;7.00;;;5.57;;
12950;SDS011;6540;50.858;7.232;2022-08-20T13:58:30;6.03;;;4.57;;
12950;SDS011;6540;50.858;7.232;2022-08-20T14:00:55;10.63;;;6.03;;
12950;SDS011;6540;50.858;7.232;2022-08-20T14:03:21;6.87;;;5.73;;
12950;SDS011;6540;50.858;7.232;2022-08-20T14:05:46;9.63;;;6.53;;
12950;SDS011;6540;50.858;7.232;2022-08-20T14:08:17;8.47;;;6.73;;
12950;SDS011;6540;50.858;7.232;2022-08-20T14:10:45;8.93;;;5.63;;
12950;SDS011;6540;50.858;7.232;2022-08-20T14:13:14;7.70;;;5.00;;
12950;SDS011;6540;50.858;7.232;2022-08-20T14:15:41;5.07;;;4.53;;
12950;SDS011;6540;50.858;7.232;2022-08-20T14:18:06;5.07;;;3.83;;
12950;SDS011;6540;50.858;7.232;2022-08-20T14:20:32;11.40;;;5.50;;
12950;SDS011;6540;50.858;7.232;2022-08-20T14:22:58;5.87;;;4.93;;
12950;SDS011;6540;50.858;7.232;2022-08-20T14:25:25;8.40;;;5.37;;
12950;SDS011;6540;50.858;7.232;2022-08-20T14:27:51;7.27;;;4.87;;
12950;SDS011;6540;50.858;7.232;2022-08-20T14:30:19;11.17;;;4.77;;
12950;SDS011;6540;50.858;7.232;2022-08-20T14:32:49;8.73;;;4.57;;
12950;SDS011;6540;50.858;7.232;2022-08-20T14:35:15;7.83;;;4.83;;
12950;SDS011;6540;50.858;7.232;2022-08-20T14:37:42;7.30;;;4.73;;
12950;SDS011;6540;50.858;7.232;2022-08-20T14:40:14;6.97;;;5.47;;
12950;SDS011;6540;50.858;7.232;2022-08-20T14:42:40;8.13;;;4.33;;
12950;SDS011;6540;50.858;7.232;2022-08-20T14:45:07;5.50;;;4.43;;
12950;SDS011;6540;50.858;7.232;2022-08-20T14:47:35;8.53;;;4.90;;
12950;SDS011;6540;50.858;7.232;2022-08-20T14:50:04;7.73;;;4.13;;
12950;SDS011;6540;50.858;7.232;2022-08-20T14:52:34;5.93;;;3.93;;
12950;SDS011;6540;50.858;7.232;2022-08-20T14:55:04;7.50;;;4.50;;
12950;SDS011;6540;50.858;7.232;2022-08-20T14:57:31;8.83;;;4.17;;
12950;SDS011;6540;50.858;7.232;2022-08-20T14:59:57;8.63;;;4.27;;
12950;SDS011;6540;50.858;7.232;2022-08-20T15:02:23;6.70;;;3.87;;
12950;SDS011;6540;50.858;7.232;2022-08-20T15:04:48;5.90;;;3.87;;
12950;SDS011;6540;50.858;7.232;2022-08-20T15:07:24;8.40;;;4.27;;
12950;SDS011;6540;50.858;7.232;2022-08-20T15:09:51;5.07;;;3.50;;
12950;SDS011;6540;50.858;7.232;2022-08-20T15:12:18;8.43;;;3.83;;
12950;SDS011;6540;50.858;7.232;2022-08-20T15:14:43;5.90;;;3.57;;